Time;durP1;ratioP1;P1;durP2;ratioP2;P2;SDS_P1;SDS_P2;PMS_P1;PMS_P2;Temp;Humidity;BMP_temperature;BMP_pressure;BME280_temperature;BME280_humidity;BME280_pressure;Samples;Min_cycle;Max_cycle;Signal;HPM_P1;HPM_P2
2023/08/29 00:00:14;;;;;;;8.55;7.75;;;;;;;;;;5074142;28;20064;-61
2023/08/29 00:02:41;;;;;;;9.50;8.53;;;;;;;;;;5072021;28;20071;-61
2023/08/29 00:05:07;;;;;;;10.32;8.88;;;;;;;;;;5074000;28;20488;-61
2023/08/29 00:07:32;;;;;;;10.90;8.20;;;;;;;;;;5072200;28;20429;-61
2023/08/29 00:09:57;;;;;;;8.23;7.47;;;;;;;;;;5073540;28;20048;-61
2023/08/29 00:12:22;;;;;;;10.73;9.73;;;;;;;;;;5072177;28;20507;-61
2023/08/29 00:14:47;;;;;;;9.60;8.80;;;;;;;;;;5073985;28;20111;-61
2023/08/29 00:17:14;;;;;;;9.33;8.43;;;;;;;;;;5071852;28;20407;-61
2023/08/29 00:19:39;;;;;;;11.57;10.38;;;;;;;;;;5073636;28;20522;-62
2023/08/29 00:22:04;;;;;;;11.88;10.00;;;;;;;;;;5072230;28;20135;-61
2023/08/29 00:24:29;;;;;;;11.23;10.03;;;;;;;;;;5073011;28;20379;-61
2023/08/29 00:26:54;;;;;;;9.87;8.87;;;;;;;;;;5071857;28;21039;-61
2023/08/29 00:29:20;;;;;;;9.77;8.90;;;;;;;;;;5073182;28;20418;-61
2023/08/29 00:31:45;;;;;;;9.47;8.67;;;;;;;;;;5071324;28;20713;-60
2023/08/29 00:34:10;;;;;;;9.05;8.20;;;;;;;;;;5073335;28;20980;-61
2023/08/29 00:36:35;;;;;;;6.37;5.77;;;;;;;;;;5071725;28;20058;-61
2023/08/29 00:39:00;;;;;;;7.10;6.00;;;;;;;;;;5070738;28;20938;-61
2023/08/29 00:41:25;;;;;;;9.80;7.68;;;;;;;;;;5071359;28;20048;-61
2023/08/29 00:43:50;;;;;;;9.37;8.43;;;;;;;;;;5073203;28;20020;-61
2023/08/29 00:46:16;;;;;;;5.80;5.30;;;;;;;;;;5071411;28;20036;-61
2023/08/29 00:48:42;;;;;;;6.55;5.47;;;;;;;;;;5072861;28;20025;-61
2023/08/29 00:51:07;;;;;;;10.93;7.18;;;;;;;;;;5071475;28;20082;-61
2023/08/29 00:53:32;;;;;;;9.77;8.63;;;;;;;;;;5072661;28;20024;-61
2023/08/29 00:55:57;;;;;;;9.50;8.70;;;;;;;;;;5071522;28;20504;-60
2023/08/29 00:58:23;;;;;;;11.40;9.87;;;;;;;;;;5072692;28;20052;-61
2023/08/29 01:00:48;;;;;;;6.97;6.37;;;;;;;;;;5070839;28;20879;-61
2023/08/29 01:03:13;;;;;;;6.55;6.00;;;;;;;;;;5072280;28;20054;-61
2023/08/29 01:05:38;;;;;;;7.40;6.53;;;;;;;;;;5071308;28;20021;-60
2023/08/29 01:08:04;;;;;;;10.05;9.15;;;;;;;;;;5072538;28;20489;-61
2023/08/29 01:10:36;;;;;;;10.27;8.15;;;;;;;;;;5070900;28;20029;-60
2023/08/29 01:13:09;;;;;;;12.85;11.55;;;;;;;;;;5072757;28;20070;-61
2023/08/29 01:15:34;;;;;;;16.30;9.55;;;;;;;;;;5070749;28;20062;-60
2023/08/29 01:18:05;;;;;;;10.43;9.48;;;;;;;;;;5072986;28;20024;-59
2023/08/29 01:20:31;;;;;;;9.00;7.97;;;;;;;;;;5070862;28;20023;-60
2023/08/29 01:22:56;;;;;;;8.88;7.97;;;;;;;;;;5072177;28;20104;-61
2023/08/29 01:25:30;;;;;;;11.40;8.95;;;;;;;;;;5072354;28;20348;-61
2023/08/29 01:27:55;;;;;;;11.73;10.43;;;;;;;;;;5070898;28;20033;-61
2023/08/29 01:30:21;;;;;;;9.43;8.60;;;;;;;;;;5071789;28;20024;-62
2023/08/29 01:32:46;;;;;;;8.25;7.63;;;;;;;;;;5070817;28;20136;-64
2023/08/29 01:35:13;;;;;;;10.65;8.55;;;;;;;;;;5072435;28;20091;-61
2023/08/29 01:37:38;;;;;;;9.10;8.30;;;;;;;;;;5069760;28;20056;-61
2023/08/29 01:40:04;;;;;;;8.18;7.38;;;;;;;;;;5070847;28;20116;-61
2023/08/29 01:42:29;;;;;;;9.63;8.75;;;;;;;;;;5070265;28;20438;-61
2023/08/29 01:44:55;;;;;;;9.70;8.90;;;;;;;;;;5071918;28;20028;-61
2023/08/29 01:47:20;;;;;;;16.02;9.40;;;;;;;;;;5070182;28;20073;-61
2023/08/29 01:49:45;;;;;;;10.73;9.17;;;;;;;;;;5072101;28;20073;-61
2023/08/29 01:52:10;;;;;;;11.07;9.98;;;;;;;;;;5070127;28;20451;-61
2023/08/29 01:54:35;;;;;;;10.27;9.37;;;;;;;;;;5071105;28;20064;-61
2023/08/29 01:57:01;;;;;;;10.25;8.70;;;;;;;;;;5070316;28;20040;-61
2023/08/29 01:59:27;;;;;;;13.88;11.13;;;;;;;;;;5071740;28;20321;-61
2023/08/29 02:01:52;;;;;;;11.20;10.18;;;;;;;;;;5070091;28;20484;-61
2023/08/29 02:04:17;;;;;;;10.37;9.37;;;;;;;;;;5071598;28;20534;-62
2023/08/29 02:06:42;;;;;;;11.35;9.30;;;;;;;;;;5069868;28;20445;-61
2023/08/29 02:09:07;;;;;;;10.80;9.70;;;;;;;;;;5071312;28;20390;-61
2023/08/29 02:11:33;;;;;;;10.35;9.05;;;;;;;;;;5069931;28;20032;-60
2023/08/29 02:13:58;;;;;;;8.80;8.00;;;;;;;;;;5070748;28;20035;-61
2023/08/29 02:16:24;;;;;;;7.87;7.10;;;;;;;;;;5068285;28;20059;-61
2023/08/29 02:18:49;;;;;;;9.60;8.60;;;;;;;;;;5071600;28;20425;-61
2023/08/29 02:21:14;;;;;;;10.73;8.50;;;;;;;;;;5069787;28;20048;-61
2023/08/29 02:23:39;;;;;;;11.80;10.60;;;;;;;;;;5069422;28;20466;-61
2023/08/29 02:26:05;;;;;;;11.13;10.02;;;;;;;;;;5069566;28;20032;-60
2023/08/29 02:28:37;;;;;;;8.90;8.10;;;;;;;;;;5070909;28;20395;-61
2023/08/29 02:31:03;;;;;;;8.55;7.93;;;;;;;;;;5067908;28;20039;-61
2023/08/29 02:33:28;;;;;;;8.82;8.02;;;;;;;;;;5071030;28;20017;-61
2023/08/29 02:35:53;;;;;;;10.32;8.30;;;;;;;;;;5069666;28;20115;-61
2023/08/29 02:38:19;;;;;;;10.65;9.65;;;;;;;;;;5070552;28;20506;-61
2023/08/29 02:40:44;;;;;;;10.77;9.70;;;;;;;;;;5067696;28;20047;-59
2023/08/29 02:43:09;;;;;;;12.87;11.67;;;;;;;;;;5071116;28;20048;-61
2023/08/29 02:45:34;;;;;;;12.25;10.20;;;;;;;;;;5069033;28;20497;-59
2023/08/29 02:47:59;;;;;;;11.15;10.00;;;;;;;;;;5070759;28;20028;-61
2023/08/29 02:50:24;;;;;;;8.75;7.95;;;;;;;;;;5069179;28;20371;-59
2023/08/29 02:52:49;;;;;;;9.75;8.95;;;;;;;;;;5070540;28;20043;-61
2023/08/29 02:55:15;;;;;;;26.10;9.82;;;;;;;;;;5070461;28;20013;-61
2023/08/29 02:57:40;;;;;;;11.38;10.27;;;;;;;;;;5069121;28;20517;-61
2023/08/29 03:00:06;;;;;;;13.27;11.10;;;;;;;;;;5069092;28;20040;-61
2023/08/29 03:02:31;;;;;;;11.43;10.35;;;;;;;;;;5068853;28;20546;-61
2023/08/29 03:04:56;;;;;;;13.03;9.83;;;;;;;;;;5070675;28;20059;-61
2023/08/29 03:07:21;;;;;;;11.35;10.35;;;;;;;;;;5068370;28;20032;-61
2023/08/29 03:09:46;;;;;;;11.82;9.70;;;;;;;;;;5070626;28;20034;-61
2023/08/29 03:12:11;;;;;;;11.35;10.23;;;;;;;;;;5068993;28;20037;-61
2023/08/29 03:14:37;;;;;;;12.70;10.68;;;;;;;;;;5069951;28;20093;-61
2023/08/29 03:17:03;;;;;;;12.98;11.65;;;;;;;;;;5069080;28;20043;-60
2023/08/29 03:19:28;;;;;;;13.40;12.18;;;;;;;;;;5070542;28;20020;-61
2023/08/29 03:21:53;;;;;;;14.30;12.35;;;;;;;;;;5068522;28;20063;-60
2023/08/29 03:24:19;;;;;;;12.70;11.50;;;;;;;;;;5070076;28;20054;-61
2023/08/29 03:26:44;;;;;;;13.80;8.32;;;;;;;;;;5068830;28;20500;-60
2023/08/29 03:29:09;;;;;;;11.57;10.50;;;;;;;;;;5069992;28;20387;-61
2023/08/29 03:31:34;;;;;;;10.20;9.30;;;;;;;;;;5068496;28;20078;-60
2023/08/29 03:34:00;;;;;;;11.20;10.10;;;;;;;;;;5070497;28;20027;-60
2023/08/29 03:36:26;;;;;;;10.73;9.77;;;;;;;;;;5068450;28;20458;-60
2023/08/29 03:38:51;;;;;;;10.55;9.52;;;;;;;;;;5068540;28;20040;-60
2023/08/29 03:41:16;;;;;;;9.50;8.60;;;;;;;;;;5068739;28;20055;-60
2023/08/29 03:43:41;;;;;;;10.77;9.83;;;;;;;;;;5069839;28;20024;-61
2023/08/29 03:46:07;;;;;;;10.25;9.20;;;;;;;;;;5068792;28;20933;-60
2023/08/29 03:48:33;;;;;;;9.75;8.75;;;;;;;;;;5069983;28;20020;-60
2023/08/29 03:50:58;;;;;;;8.70;7.85;;;;;;;;;;5067989;28;20029;-59
2023/08/29 03:53:24;;;;;;;9.43;8.63;;;;;;;;;;5070146;28;20050;-60
2023/08/29 03:55:49;;;;;;;11.18;10.18;;;;;;;;;;5068928;28;20527;-59
2023/08/29 03:58:14;;;;;;;10.60;8.73;;;;;;;;;;5069624;28;20051;-59
2023/08/29 04:00:41;;;;;;;11.83;10.70;;;;;;;;;;5068422;28;20779;-59
2023/08/29 04:03:06;;;;;;;11.88;10.77;;;;;;;;;;5070194;28;20021;-59
2023/08/29 04:05:31;;;;;;;13.10;10.73;;;;;;;;;;5067628;28;20769;-59
2023/08/29 04:07:56;;;;;;;10.95;9.85;;;;;;;;;;5069717;28;20017;-60
2023/08/29 04:10:21;;;;;;;10.93;9.83;;;;;;;;;;5067897;28;20444;-60
2023/08/29 04:12:46;;;;;;;12.00;10.70;;;;;;;;;;5068309;28;20009;-62
2023/08/29 04:15:12;;;;;;;9.35;8.55;;;;;;;;;;5069227;28;20458;-61
2023/08/29 04:17:37;;;;;;;12.93;11.82;;;;;;;;;;5067696;28;20035;-63
2023/08/29 04:20:08;;;;;;;14.43;13.02;;;;;;;;;;5069753;28;20017;-62
2023/08/29 04:22:33;;;;;;;13.02;11.65;;;;;;;;;;5067314;28;20032;-62
2023/08/29 04:24:59;;;;;;;15.60;12.38;;;;;;;;;;5069666;28;20420;-61
2023/08/29 04:27:24;;;;;;;13.60;12.23;;;;;;;;;;5067369;28;20570;-62
2023/08/29 04:29:49;;;;;;;15.80;14.30;;;;;;;;;;5069166;28;20564;-61
2023/08/29 04:32:15;;;;;;;13.83;12.43;;;;;;;;;;5068359;28;20438;-62
2023/08/29 04:34:40;;;;;;;13.90;12.48;;;;;;;;;;5069417;28;20036;-61
2023/08/29 04:37:05;;;;;;;15.02;13.68;;;;;;;;;;5069011;28;20036;-61
2023/08/29 04:39:30;;;;;;;13.77;12.20;;;;;;;;;;5072615;28;20503;-64
2023/08/29 04:41:55;;;;;;;17.23;13.07;;;;;;;;;;5071824;28;20234;-64
2023/08/29 04:44:21;;;;;;;16.53;14.73;;;;;;;;;;5071437;28;20551;-64
2023/08/29 04:46:46;;;;;;;18.55;16.45;;;;;;;;;;5071774;28;20451;-62
2023/08/29 04:49:11;;;;;;;20.48;14.20;;;;;;;;;;5073140;28;20092;-62
2023/08/29 04:51:36;;;;;;;15.75;13.85;;;;;;;;;;5071165;28;20372;-64
2023/08/29 04:54:02;;;;;;;14.90;11.20;;;;;;;;;;5073301;28;20024;-62
2023/08/29 04:56:27;;;;;;;11.57;10.52;;;;;;;;;;5071485;28;20625;-62
2023/08/29 04:58:52;;;;;;;17.40;13.20;;;;;;;;;;5072882;28;20020;-62
2023/08/29 05:01:17;;;;;;;11.57;10.52;;;;;;;;;;5071453;28;20032;-61
2023/08/29 05:03:42;;;;;;;14.40;11.18;;;;;;;;;;5072821;28;20024;-62
2023/08/29 05:06:07;;;;;;;13.13;11.83;;;;;;;;;;5071073;28;20483;-62
2023/08/29 05:08:36;;;;;;;13.20;11.90;;;;;;;;;;5072426;28;20112;-59
2023/08/29 05:11:01;;;;;;;21.63;14.15;;;;;;;;;;5071084;28;20392;-59
2023/08/29 05:13:27;;;;;;;14.20;12.90;;;;;;;;;;5072479;28;20021;-59
2023/08/29 05:15:52;;;;;;;12.25;11.10;;;;;;;;;;5071213;28;20112;-60
2023/08/29 05:18:17;;;;;;;14.52;13.13;;;;;;;;;;5072660;28;20021;-59
2023/08/29 05:20:42;;;;;;;14.53;11.33;;;;;;;;;;5070644;28;20033;-59
2023/08/29 05:23:08;;;;;;;15.60;12.65;;;;;;;;;;5072590;28;20021;-59
2023/08/29 05:25:33;;;;;;;15.23;13.70;;;;;;;;;;5070428;28;20094;-59
2023/08/29 05:27:58;;;;;;;14.80;13.37;;;;;;;;;;5070545;28;20900;-59
2023/08/29 05:30:23;;;;;;;13.43;12.13;;;;;;;;;;5070882;28;20437;-58
2023/08/29 05:32:48;;;;;;;14.57;13.10;;;;;;;;;;5072690;28;20035;-59
2023/08/29 05:35:14;;;;;;;16.97;14.23;;;;;;;;;;5071559;28;20570;-59
2023/08/29 05:37:39;;;;;;;16.83;15.13;;;;;;;;;;5070528;28;20449;-59
2023/08/29 05:40:05;;;;;;;14.35;12.20;;;;;;;;;;5072312;28;20020;-59
2023/08/29 05:42:31;;;;;;;12.93;11.57;;;;;;;;;;5070175;28;20039;-59
2023/08/29 05:44:56;;;;;;;18.08;13.38;;;;;;;;;;5071631;28;20024;-59
2023/08/29 05:47:21;;;;;;;13.13;11.55;;;;;;;;;;5069976;28;20032;-58
2023/08/29 05:49:46;;;;;;;13.85;12.45;;;;;;;;;;5072071;28;20085;-59
2023/08/29 05:52:11;;;;;;;24.27;13.00;;;;;;;;;;5070617;28;20066;-59
2023/08/29 05:54:37;;;;;;;14.77;13.27;;;;;;;;;;5071619;28;20030;-59
2023/08/29 05:57:03;;;;;;;15.43;13.90;;;;;;;;;;5070051;28;20538;-59
2023/08/29 05:59:28;;;;;;;17.30;13.77;;;;;;;;;;5071996;28;20465;-59
2023/08/29 06:01:54;;;;;;;16.93;13.97;;;;;;;;;;5070392;28;20064;-59
2023/08/29 06:04:19;;;;;;;13.80;12.18;;;;;;;;;;5070747;28;20021;-59
2023/08/29 06:06:45;;;;;;;13.95;12.45;;;;;;;;;;5069841;28;20062;-59
2023/08/29 06:09:10;;;;;;;14.77;13.25;;;;;;;;;;5071588;28;20017;-59
2023/08/29 06:11:35;;;;;;;13.57;12.00;;;;;;;;;;5067660;28;20511;-59
2023/08/29 06:14:01;;;;;;;14.07;12.70;;;;;;;;;;5071386;28;20050;-59
2023/08/29 06:16:26;;;;;;;15.10;13.68;;;;;;;;;;5068632;28;20178;-59
2023/08/29 06:18:51;;;;;;;16.03;12.73;;;;;;;;;;5070002;28;20029;-59
2023/08/29 06:21:17;;;;;;;22.10;14.07;;;;;;;;;;5068999;28;20115;-59
2023/08/29 06:23:42;;;;;;;13.75;12.45;;;;;;;;;;5069180;28;20039;-59
2023/08/29 06:26:07;;;;;;;13.50;11.93;;;;;;;;;;5067967;28;20076;-59
2023/08/29 06:28:33;;;;;;;14.33;13.10;;;;;;;;;;5069333;28;20021;-59
2023/08/29 06:31:03;;;;;;;13.48;12.23;;;;;;;;;;5066843;28;20024;-59
2023/08/29 06:33:29;;;;;;;14.00;11.65;;;;;;;;;;5069453;28;20119;-59
2023/08/29 06:35:54;;;;;;;13.77;12.38;;;;;;;;;;5069827;28;20092;-59
2023/08/29 06:38:19;;;;;;;16.33;11.07;;;;;;;;;;5069154;28;20052;-59
2023/08/29 06:40:44;;;;;;;13.07;11.80;;;;;;;;;;5068678;28;20027;-59
2023/08/29 06:43:10;;;;;;;13.00;11.77;;;;;;;;;;5043878;28;20065;-59
2023/08/29 06:45:35;;;;;;;22.10;12.70;;;;;;;;;;5050858;28;20985;-59
2023/08/29 06:48:01;;;;;;;12.70;11.55;;;;;;;;;;5049108;28;20471;-59
2023/08/29 06:50:26;;;;;;;16.63;11.25;;;;;;;;;;5050107;28;20391;-59
2023/08/29 06:52:51;;;;;;;11.70;10.27;;;;;;;;;;5063117;28;20036;-59
2023/08/29 06:55:17;;;;;;;13.90;11.40;;;;;;;;;;5070820;28;20548;-59
2023/08/29 06:57:42;;;;;;;13.00;11.73;;;;;;;;;;5068754;28;20037;-60
2023/08/29 07:00:10;;;;;;;14.17;11.37;;;;;;;;;;5069356;28;20423;-59
2023/08/29 07:02:35;;;;;;;15.95;11.98;;;;;;;;;;5068698;28;20039;-60
2023/08/29 07:05:00;;;;;;;12.27;11.05;;;;;;;;;;5070281;28;20016;-59
2023/08/29 07:07:25;;;;;;;14.48;11.93;;;;;;;;;;5068957;28;20391;-59
2023/08/29 07:09:51;;;;;;;18.17;11.13;;;;;;;;;;5070660;28;20066;-59
2023/08/29 07:12:16;;;;;;;10.68;9.60;;;;;;;;;;5068793;28;20430;-59
2023/08/29 07:14:41;;;;;;;11.45;10.25;;;;;;;;;;5070407;28;20024;-59
2023/08/29 07:17:06;;;;;;;14.75;10.63;;;;;;;;;;5069085;28;20127;-59
2023/08/29 07:19:31;;;;;;;13.23;10.47;;;;;;;;;;5069875;28;20020;-59
2023/08/29 07:21:56;;;;;;;12.33;10.13;;;;;;;;;;5069081;28;20111;-59
2023/08/29 07:24:21;;;;;;;16.43;9.67;;;;;;;;;;5070043;28;20766;-59
2023/08/29 07:26:47;;;;;;;12.32;8.85;;;;;;;;;;5068552;28;20032;-59
2023/08/29 07:29:12;;;;;;;10.95;8.68;;;;;;;;;;5070442;28;20023;-59
2023/08/29 07:31:37;;;;;;;10.77;7.73;;;;;;;;;;5067246;28;20028;-60
2023/08/29 07:34:03;;;;;;;7.95;7.18;;;;;;;;;;5069635;28;20422;-59
2023/08/29 07:36:28;;;;;;;10.80;8.32;;;;;;;;;;5068738;28;20041;-60
2023/08/29 07:38:53;;;;;;;10.83;7.57;;;;;;;;;;5070175;28;20491;-59
2023/08/29 07:41:18;;;;;;;8.23;7.53;;;;;;;;;;5068432;28;20064;-60
2023/08/29 07:43:43;;;;;;;7.47;6.67;;;;;;;;;;5069942;28;20120;-59
2023/08/29 07:46:08;;;;;;;7.95;7.22;;;;;;;;;;5068443;28;20465;-59
2023/08/29 07:48:34;;;;;;;19.63;8.87;;;;;;;;;;5069589;28;20020;-59
2023/08/29 07:50:59;;;;;;;6.73;6.13;;;;;;;;;;5068800;28;20043;-59
2023/08/29 07:53:24;;;;;;;9.37;7.27;;;;;;;;;;5070084;28;20399;-60
2023/08/29 07:55:49;;;;;;;6.60;6.13;;;;;;;;;;5068118;28;20589;-59
2023/08/29 07:58:14;;;;;;;8.27;6.45;;;;;;;;;;5070029;28;20850;-59
2023/08/29 08:00:39;;;;;;;7.60;6.53;;;;;;;;;;5068372;28;20452;-60
2023/08/29 08:03:05;;;;;;;7.60;5.80;;;;;;;;;;5069965;28;20021;-59
2023/08/29 08:05:30;;;;;;;8.73;6.15;;;;;;;;;;5068680;28;20412;-59
2023/08/29 08:07:56;;;;;;;9.38;7.15;;;;;;;;;;5070081;28;20628;-60
2023/08/29 08:10:21;;;;;;;9.02;4.78;;;;;;;;;;5069343;28;20381;-59
2023/08/29 08:12:48;;;;;;;7.38;4.93;;;;;;;;;;5071364;28;20029;-60
2023/08/29 08:15:13;;;;;;;5.05;4.65;;;;;;;;;;5072465;28;20407;-60
2023/08/29 08:17:38;;;;;;;8.32;5.45;;;;;;;;;;5070536;28;20056;-60
2023/08/29 08:20:07;;;;;;;5.30;4.38;;;;;;;;;;5074173;28;20475;-59
2023/08/29 08:22:33;;;;;;;4.15;3.75;;;;;;;;;;5071921;28;20041;-59
2023/08/29 08:24:58;;;;;;;4.70;3.85;;;;;;;;;;5073177;28;20012;-59
2023/08/29 08:27:24;;;;;;;5.20;2.50;;;;;;;;;;5071922;28;20032;-60
2023/08/29 08:29:49;;;;;;;10.82;4.07;;;;;;;;;;5073749;28;20024;-60
2023/08/29 08:32:14;;;;;;;5.40;3.88;;;;;;;;;;5071784;28;20072;-60
2023/08/29 08:34:40;;;;;;;5.15;3.22;;;;;;;;;;5073574;28;20028;-59
2023/08/29 08:37:05;;;;;;;4.22;3.83;;;;;;;;;;5071985;28;20398;-60
2023/08/29 08:39:33;;;;;;;4.63;3.30;;;;;;;;;;5069830;28;20079;-60
2023/08/29 08:41:58;;;;;;;5.47;3.15;;;;;;;;;;5056817;28;20730;-60
2023/08/29 08:44:24;;;;;;;3.72;2.63;;;;;;;;;;5053020;28;20025;-60
2023/08/29 08:46:49;;;;;;;5.45;3.67;;;;;;;;;;5063157;28;20110;-60
2023/08/29 08:49:15;;;;;;;6.40;4.15;;;;;;;;;;5073165;28;20051;-61
2023/08/29 08:51:40;;;;;;;9.40;4.03;;;;;;;;;;5060781;28;20029;-61
2023/08/29 08:54:06;;;;;;;3.30;3.00;;;;;;;;;;5052990;28;20422;-61
2023/08/29 08:56:32;;;;;;;5.07;2.67;;;;;;;;;;5061062;28;20037;-61
2023/08/29 08:58:58;;;;;;;3.17;2.88;;;;;;;;;;5073089;28;20046;-61
2023/08/29 09:01:23;;;;;;;4.32;3.92;;;;;;;;;;5062882;28;20101;-61
2023/08/29 09:03:49;;;;;;;8.77;5.05;;;;;;;;;;5052538;28;20048;-61
2023/08/29 09:06:14;;;;;;;3.25;2.95;;;;;;;;;;5058839;28;20031;-61
2023/08/29 09:08:39;;;;;;;6.38;2.70;;;;;;;;;;5072594;28;20044;-61
2023/08/29 09:11:05;;;;;;;4.13;3.83;;;;;;;;;;5065009;28;20425;-61
2023/08/29 09:13:30;;;;;;;7.82;3.78;;;;;;;;;;5052549;28;20096;-59
2023/08/29 09:15:57;;;;;;;4.05;3.22;;;;;;;;;;5056108;28;20617;-60
2023/08/29 09:18:23;;;;;;;2.15;1.67;;;;;;;;;;5072142;28;20024;-60
2023/08/29 09:20:50;;;;;;;5.80;2.15;;;;;;;;;;5067557;28;20094;-59
2023/08/29 09:23:22;;;;;;;3.38;2.30;;;;;;;;;;5052078;28;20021;-60
2023/08/29 09:25:54;;;;;;;3.35;2.55;;;;;;;;;;5054477;28;20085;-60
2023/08/29 09:28:19;;;;;;;5.70;1.98;;;;;;;;;;5072298;28;20354;-60
2023/08/29 09:30:44;;;;;;;2.50;1.87;;;;;;;;;;5067885;28;20116;-60
2023/08/29 09:33:10;;;;;;;4.20;2.27;;;;;;;;;;5051932;28;20021;-60
2023/08/29 09:35:35;;;;;;;2.10;1.90;;;;;;;;;;5051089;28;20435;-60
2023/08/29 09:38:00;;;;;;;7.77;2.00;;;;;;;;;;5072252;28;20045;-60
2023/08/29 09:40:25;;;;;;;4.20;2.27;;;;;;;;;;5069431;28;20016;-60
2023/08/29 09:42:56;;;;;;;2.63;1.10;;;;;;;;;;5052234;28;20018;-60
2023/08/29 09:45:22;;;;;;;4.47;2.25;;;;;;;;;;5051947;28;20044;-60
2023/08/29 09:47:50;;;;;;;3.15;1.58;;;;;;;;;;5050219;28;20521;-60
2023/08/29 09:50:15;;;;;;;5.57;1.85;;;;;;;;;;5052286;28;20588;-60
2023/08/29 09:52:41;;;;;;;1.53;1.43;;;;;;;;;;5069619;28;20040;-60
2023/08/29 09:55:08;;;;;;;6.55;3.03;;;;;;;;;;5071505;28;20043;-60
2023/08/29 09:57:35;;;;;;;1.35;1.25;;;;;;;;;;5051726;28;20167;-60
2023/08/29 10:00:01;;;;;;;3.83;2.70;;;;;;;;;;5052235;28;20115;-60
2023/08/29 10:02:29;;;;;;;2.35;1.48;;;;;;;;;;5049840;28;20124;-60
2023/08/29 10:04:55;;;;;;;2.42;1.80;;;;;;;;;;5050441;28;20104;-60
2023/08/29 10:07:33;;;;;;;3.10;1.70;;;;;;;;;;5051072;28;20117;-61
2023/08/29 10:09:59;;;;;;;3.03;1.80;;;;;;;;;;5071239;28;20095;-60
2023/08/29 10:12:25;;;;;;;1.23;1.13;;;;;;;;;;5067165;28;20144;-60
2023/08/29 10:14:51;;;;;;;4.35;3.10;;;;;;;;;;5070974;28;20021;-60
2023/08/29 10:17:16;;;;;;;4.22;2.17;;;;;;;;;;5069184;28;20582;-60
2023/08/29 10:19:42;;;;;;;1.40;1.10;;;;;;;;;;5070595;28;20027;-60
2023/08/29 10:22:07;;;;;;;2.25;1.25;;;;;;;;;;5068622;28;20461;-60
2023/08/29 10:24:35;;;;;;;3.00;1.27;;;;;;;;;;5069764;28;20020;-60
2023/08/29 10:27:02;;;;;;;1.73;1.60;;;;;;;;;;5067313;28;20071;-60
2023/08/29 10:29:27;;;;;;;4.32;3.63;;;;;;;;;;5067354;28;20026;-60
2023/08/29 10:31:53;;;;;;;6.18;3.90;;;;;;;;;;5068136;28;20340;-60
2023/08/29 10:34:19;;;;;;;6.32;3.90;;;;;;;;;;5070056;28;20024;-60
2023/08/29 10:36:45;;;;;;;2.78;2.50;;;;;;;;;;5068730;28;20071;-60
2023/08/29 10:39:13;;;;;;;2.00;1.90;;;;;;;;;;5070229;28;20076;-60
2023/08/29 10:41:47;;;;;;;4.90;2.80;;;;;;;;;;5069111;28;20036;-60
2023/08/29 10:44:31;;;;;;;3.22;2.95;;;;;;;;;;5070630;28;20016;-60
2023/08/29 10:47:15;;;;;;;2.95;1.70;;;;;;;;;;5067448;28;20044;-60
2023/08/29 10:49:42;;;;;;;1.85;0.93;;;;;;;;;;5070340;28;20020;-60
2023/08/29 10:52:08;;;;;;;3.25;0.95;;;;;;;;;;5069198;28;20039;-60
2023/08/29 10:54:33;;;;;;;2.00;0.88;;;;;;;;;;5069907;28;20483;-60
2023/08/29 10:56:58;;;;;;;1.42;0.80;;;;;;;;;;5069275;28;20081;-59
2023/08/29 10:59:32;;;;;;;1.33;0.97;;;;;;;;;;5070100;28;20047;-60
2023/08/29 11:02:20;;;;;;;0.98;0.90;;;;;;;;;;5068766;28;20454;-60
2023/08/29 11:04:45;;;;;;;1.67;1.10;;;;;;;;;;5070478;28;20023;-60
2023/08/29 11:07:20;;;;;;;1.63;1.00;;;;;;;;;;5068815;28;20024;-60
2023/08/29 11:09:46;;;;;;;3.90;1.00;;;;;;;;;;5066757;28;20027;-60
2023/08/29 11:12:16;;;;;;;2.20;1.10;;;;;;;;;;5062373;28;20033;-60
2023/08/29 11:14:48;;;;;;;10.38;2.40;;;;;;;;;;5069989;28;20024;-60
2023/08/29 11:17:13;;;;;;;2.13;1.48;;;;;;;;;;5067688;28;20441;-60
2023/08/29 11:19:38;;;;;;;1.08;1.05;;;;;;;;;;5069497;28;20095;-60
2023/08/29 11:22:04;;;;;;;1.23;1.08;;;;;;;;;;5068512;28;20063;-61
2023/08/29 11:24:29;;;;;;;2.05;1.10;;;;;;;;;;5068369;28;20518;-60
2023/08/29 11:26:57;;;;;;;3.88;1.10;;;;;;;;;;5068747;28;20487;-60
2023/08/29 11:29:22;;;;;;;1.50;0.90;;;;;;;;;;5069792;28;20017;-60
2023/08/29 11:31:47;;;;;;;2.88;1.30;;;;;;;;;;5068399;28;20039;-60
2023/08/29 11:34:20;;;;;;;4.28;1.33;;;;;;;;;;5070003;28;20024;-60
2023/08/29 11:36:48;;;;;;;3.83;2.03;;;;;;;;;;5068717;28;20114;-60
2023/08/29 11:39:13;;;;;;;0.80;0.80;;;;;;;;;;5069492;28;20059;-60
2023/08/29 11:41:38;;;;;;;1.17;1.08;;;;;;;;;;5065986;28;20045;-60
2023/08/29 11:44:03;;;;;;;0.68;0.68;;;;;;;;;;5065732;28;20530;-60
2023/08/29 11:46:35;;;;;;;1.92;1.08;;;;;;;;;;5070603;28;20037;-60
2023/08/29 11:49:00;;;;;;;2.95;1.10;;;;;;;;;;5074726;28;20015;-61
2023/08/29 11:51:25;;;;;;;1.10;0.88;;;;;;;;;;5074350;28;20036;-60
2023/08/29 11:53:51;;;;;;;0.75;0.70;;;;;;;;;;5076401;28;20024;-60
2023/08/29 11:56:16;;;;;;;3.30;0.83;;;;;;;;;;5075192;28;20025;-60
2023/08/29 11:58:41;;;;;;;4.22;1.63;;;;;;;;;;5075310;28;20024;-60
2023/08/29 12:01:07;;;;;;;3.58;1.67;;;;;;;;;;5074415;28;20526;-60
2023/08/29 12:03:36;;;;;;;1.42;1.33;;;;;;;;;;5076368;28;20013;-60
2023/08/29 12:06:04;;;;;;;2.83;2.10;;;;;;;;;;5074795;28;20480;-60
2023/08/29 12:08:34;;;;;;;1.73;1.20;;;;;;;;;;5075904;28;20424;-61
2023/08/29 12:10:59;;;;;;;2.83;1.42;;;;;;;;;;5074814;28;20211;-60
2023/08/29 12:13:24;;;;;;;1.35;1.25;;;;;;;;;;5076095;28;20044;-60
2023/08/29 12:15:49;;;;;;;4.45;1.92;;;;;;;;;;5073395;28;20644;-59
2023/08/29 12:18:24;;;;;;;2.87;1.97;;;;;;;;;;5076248;28;20021;-60
2023/08/29 12:20:50;;;;;;;1.95;1.83;;;;;;;;;;5069953;28;20060;-60
2023/08/29 12:23:26;;;;;;;5.20;1.10;;;;;;;;;;5075307;28;20044;-60
2023/08/29 12:25:51;;;;;;;2.05;0.80;;;;;;;;;;5071226;28;20041;-60
2023/08/29 12:28:16;;;;;;;2.60;0.80;;;;;;;;;;5056213;28;20094;-60
2023/08/29 12:30:41;;;;;;;1.92;1.30;;;;;;;;;;5056103;28;20016;-60
2023/08/29 12:33:07;;;;;;;3.20;1.17;;;;;;;;;;5076166;28;20020;-60
2023/08/29 12:35:32;;;;;;;2.83;1.40;;;;;;;;;;5074605;28;20446;-60
2023/08/29 12:37:57;;;;;;;2.78;1.15;;;;;;;;;;5060606;28;20076;-60
2023/08/29 12:40:22;;;;;;;1.40;1.20;;;;;;;;;;5056269;28;20024;-60
2023/08/29 12:42:49;;;;;;;1.27;1.17;;;;;;;;;;5067195;28;20035;-60
2023/08/29 12:45:15;;;;;;;2.37;1.30;;;;;;;;;;5075783;28;20489;-60
2023/08/29 12:47:40;;;;;;;2.25;1.45;;;;;;;;;;5063198;28;20459;-61
2023/08/29 12:50:06;;;;;;;1.20;1.00;;;;;;;;;;5055964;28;20023;-61
2023/08/29 12:52:31;;;;;;;2.17;1.15;;;;;;;;;;5063750;28;20512;-60
2023/08/29 12:54:56;;;;;;;1.15;0.65;;;;;;;;;;5075955;28;20097;-60
2023/08/29 12:57:21;;;;;;;1.35;1.20;;;;;;;;;;5063698;28;20037;-61
2023/08/29 12:59:47;;;;;;;0.90;0.80;;;;;;;;;;5052470;28;20430;-60
2023/08/29 13:02:12;;;;;;;0.70;0.70;;;;;;;;;;5058835;28;20123;-60
2023/08/29 13:04:37;;;;;;;3.33;1.10;;;;;;;;;;5072286;28;20023;-60
2023/08/29 13:07:02;;;;;;;3.45;1.35;;;;;;;;;;5064722;28;20480;-60
2023/08/29 13:09:28;;;;;;;3.03;0.90;;;;;;;;;;5052598;28;20020;-60
2023/08/29 13:11:53;;;;;;;2.17;1.20;;;;;;;;;;5056174;28;20029;-60
2023/08/29 13:14:18;;;;;;;2.00;1.10;;;;;;;;;;5072126;28;20409;-60
2023/08/29 13:16:43;;;;;;;3.23;1.47;;;;;;;;;;5067497;28;20033;-60
2023/08/29 13:19:08;;;;;;;1.70;1.02;;;;;;;;;;5050664;28;20503;-60
2023/08/29 13:21:34;;;;;;;1.67;1.48;;;;;;;;;;5047876;28;20048;-60
2023/08/29 13:23:59;;;;;;;3.03;0.93;;;;;;;;;;5062484;28;20021;-60
2023/08/29 13:26:25;;;;;;;1.13;1.02;;;;;;;;;;5057036;28;20017;-60
2023/08/29 13:28:50;;;;;;;1.02;0.85;;;;;;;;;;5057952;28;20025;-60
2023/08/29 13:31:15;;;;;;;0.77;0.73;;;;;;;;;;5050925;28;20374;-60
2023/08/29 13:33:45;;;;;;;0.68;0.68;;;;;;;;;;5052290;28;20072;-60
2023/08/29 13:36:10;;;;;;;0.70;0.70;;;;;;;;;;5064421;28;20647;-60
2023/08/29 13:38:35;;;;;;;1.95;1.30;;;;;;;;;;5071667;28;20041;-60
2023/08/29 13:41:01;;;;;;;3.10;1.10;;;;;;;;;;5070611;28;20437;-60
2023/08/29 13:43:26;;;;;;;1.45;1.10;;;;;;;;;;5071464;28;20076;-60
2023/08/29 13:45:51;;;;;;;1.50;1.17;;;;;;;;;;5070560;28;20029;-60
2023/08/29 13:48:16;;;;;;;0.70;0.70;;;;;;;;;;5071975;28;20427;-60
2023/08/29 13:50:43;;;;;;;1.23;1.13;;;;;;;;;;5069752;28;20062;-60
2023/08/29 13:53:09;;;;;;;1.15;1.02;;;;;;;;;;5071771;28;20510;-60
2023/08/29 13:55:34;;;;;;;2.67;0.90;;;;;;;;;;5070182;28;20021;-60
2023/08/29 13:57:59;;;;;;;0.70;0.70;;;;;;;;;;5068346;28;20017;-60
2023/08/29 14:00:24;;;;;;;1.40;1.30;;;;;;;;;;5051500;28;20021;-60
2023/08/29 14:02:50;;;;;;;1.33;1.10;;;;;;;;;;5060887;28;20033;-60
2023/08/29 14:05:15;;;;;;;5.82;1.83;;;;;;;;;;5071113;28;20107;-60
2023/08/29 14:07:40;;;;;;;3.35;1.27;;;;;;;;;;5069505;28;20040;-60
2023/08/29 14:10:06;;;;;;;1.80;1.30;;;;;;;;;;5070131;28;20048;-60
2023/08/29 14:12:31;;;;;;;1.25;0.82;;;;;;;;;;5068617;28;20373;-60
2023/08/29 14:14:56;;;;;;;1.30;1.20;;;;;;;;;;5062826;28;20052;-61
2023/08/29 14:17:22;;;;;;;1.80;0.90;;;;;;;;;;5049655;28;20041;-60
2023/08/29 14:19:47;;;;;;;1.45;1.00;;;;;;;;;;5055211;28;20055;-60
2023/08/29 14:22:12;;;;;;;7.67;1.93;;;;;;;;;;5069854;28;20032;-60
2023/08/29 14:24:37;;;;;;;0.90;0.90;;;;;;;;;;5070761;28;20449;-60